createdAt,value
2023-02-11T00:02:36.818Z,102500.03
2023-02-11T00:05:39.539Z,102492.00
2023-02-11T00:08:42.156Z,102474.47
2023-02-11T00:11:44.769Z,102479.41
2023-02-11T00:14:47.393Z,102458.00
2023-02-11T00:17:50.082Z,102459.50
2023-02-11T00:20:52.461Z,102456.59
2023-02-11T00:23:57.230Z,102464.69
2023-02-11T00:27:00.382Z,102471.06
2023-02-11T00:30:05.360Z,102463.72
2023-02-11T00:33:07.745Z,102444.97
2023-02-11T00:36:16.329Z,102467.13
2023-02-11T00:39:20.746Z,102457.03
2023-02-11T00:42:23.422Z,102461.00
2023-02-11T00:45:25.775Z,102461.47
2023-02-11T00:48:28.533Z,102459.22
2023-02-11T00:51:30.925Z,102465.38
2023-02-11T00:54:33.551Z,102459.56
2023-02-11T00:57:36.173Z,102462.62
2023-02-11T01:00:38.913Z,102451.16
2023-02-11T01:03:42.158Z,102446.03
2023-02-11T01:06:44.821Z,102447.19
2023-02-11T01:09:47.257Z,102439.72
2023-02-11T01:12:50.264Z,102431.38
2023-02-11T01:15:53.714Z,102437.56
2023-02-11T01:18:56.503Z,102396.00
2023-02-11T01:21:59.093Z,102419.47
2023-02-11T01:25:01.746Z,102409.72
2023-02-11T01:28:04.659Z,102409.22
2023-02-11T01:31:07.617Z,102408.22
2023-02-11T01:34:10.048Z,102402.84
2023-02-11T01:37:12.899Z,102396.47
2023-02-11T01:40:17.640Z,102375.69
2023-02-11T01:43:20.846Z,102377.94
2023-02-11T01:46:32.287Z,102387.84
2023-02-11T01:49:38.976Z,102393.44
2023-02-11T01:52:42.642Z,102377.09
2023-02-11T01:56:04.091Z,102396.84
2023-02-11T01:59:17.256Z,102394.06
2023-02-11T02:02:25.983Z,102374.91
2023-02-11T02:05:35.834Z,102392.09
2023-02-11T02:08:47.325Z,102382.25
2023-02-11T02:11:50.460Z,102397.06
2023-02-11T02:15:08.969Z,102397.28
2023-02-11T02:18:14.500Z,102394.03
2023-02-11T02:21:28.970Z,102401.59
2023-02-11T02:25:05.721Z,102399.78
2023-02-11T02:28:14.152Z,102404.75
2023-02-11T02:31:28.877Z,102407.13
2023-02-11T02:35:09.820Z,102375.59
2023-02-11T02:38:27.534Z,102390.78
2023-02-11T02:41:35.492Z,102382.06
2023-02-11T02:44:38.156Z,102384.34
2023-02-11T02:47:40.748Z,102390.72
2023-02-11T02:50:43.774Z,102371.09
2023-02-11T02:54:07.670Z,102384.88
2023-02-11T02:57:25.703Z,102373.31
2023-02-11T03:01:17.196Z,102384.00
2023-02-11T03:04:29.567Z,102369.78
2023-02-11T03:07:43.106Z,102373.06
2023-02-11T03:10:50.079Z,102372.22
2023-02-11T03:13:54.823Z,102373.94
2023-02-11T03:17:00.484Z,102378.56
2023-02-11T03:20:06.833Z,102366.81
2023-02-11T03:23:15.604Z,102371.22
2023-02-11T03:26:46.695Z,102361.00
2023-02-11T03:30:01.480Z,102363.47
2023-02-11T03:33:28.121Z,102325.63
2023-02-11T03:36:55.990Z,102355.75
2023-02-11T03:40:05.308Z,102361.41
2023-02-11T03:43:19.357Z,102342.13
2023-02-11T03:46:27.575Z,102317.25
2023-02-11T03:49:33.319Z,102307.31
2023-02-11T03:52:38.011Z,102307.78
2023-02-11T03:55:42.211Z,102303.34
2023-02-11T03:58:46.105Z,102322.25
2023-02-11T04:01:48.967Z,102304.91
2023-02-11T04:04:51.685Z,102308.78
2023-02-11T04:07:54.142Z,102307.44
2023-02-11T04:10:56.810Z,102299.91
2023-02-11T04:13:59.182Z,102295.13
2023-02-11T04:17:03.068Z,102272.38
2023-02-11T04:20:05.779Z,102260.09
2023-02-11T04:23:08.590Z,102279.47
2023-02-11T04:26:10.959Z,102277.59
2023-02-11T04:29:13.629Z,102283.91
2023-02-11T04:32:16.195Z,102275.41
2023-02-11T04:35:19.010Z,102277.94
2023-02-11T04:38:23.932Z,102282.56
2023-02-11T04:41:26.580Z,102278.13
2023-02-11T04:44:28.994Z,102277.09
2023-02-11T04:47:31.643Z,102277.09
2023-02-11T04:50:34.007Z,102282.22
2023-02-11T04:53:36.741Z,102279.53
2023-02-11T04:56:39.508Z,102275.75
2023-02-11T04:59:42.359Z,102274.06
2023-02-11T05:02:44.741Z,102275.75
2023-02-11T05:05:47.409Z,102282.56
2023-02-11T05:08:49.995Z,102287.03
2023-02-11T05:11:53.670Z,102288.38
2023-02-11T05:14:56.049Z,102274.09
2023-02-11T05:17:58.739Z,102290.47
2023-02-11T05:21:07.123Z,102290.50
2023-02-11T05:24:09.757Z,102286.63
2023-02-11T05:27:12.112Z,102283.19
2023-02-11T05:30:14.759Z,102292.97
2023-02-11T05:33:17.173Z,102293.81
2023-02-11T05:36:19.784Z,102277.31
2023-02-11T05:39:22.199Z,102276.28
2023-02-11T05:42:24.844Z,102281.75
2023-02-11T05:45:27.285Z,102257.91
2023-02-11T05:48:30.920Z,102258.41
2023-02-11T05:51:33.216Z,102278.03
2023-02-11T05:54:35.866Z,102278.91
2023-02-11T05:57:39.417Z,102245.00
2023-02-11T06:00:41.986Z,102276.69
2023-02-11T06:03:44.701Z,102252.66
2023-02-11T06:06:47.063Z,102255.91
2023-02-11T06:09:49.757Z,102286.22
2023-02-11T06:12:52.159Z,102280.75
2023-02-11T06:15:59.569Z,102257.25
2023-02-11T06:19:02.122Z,102279.31
2023-02-11T06:22:04.939Z,102268.94
2023-02-11T06:25:07.381Z,102259.25
2023-02-11T06:28:10.772Z,102267.25
2023-02-11T06:31:13.417Z,102255.66
2023-02-11T06:34:16.090Z,102251.06
2023-02-11T06:37:18.420Z,102252.84
2023-02-11T06:40:21.346Z,102262.66
2023-02-11T06:43:23.654Z,102264.72
2023-02-11T06:46:26.434Z,102256.91
2023-02-11T06:49:29.088Z,102254.66
2023-02-11T06:52:32.394Z,102235.09
2023-02-11T06:55:35.413Z,102227.59
2023-02-11T06:58:38.386Z,102245.53
2023-02-11T07:01:40.712Z,102225.84
2023-02-11T07:04:43.429Z,102255.62
2023-02-11T07:07:45.916Z,102242.75
2023-02-11T07:10:48.842Z,102230.50
2023-02-11T07:13:52.860Z,102243.13
2023-02-11T07:16:55.432Z,102246.81
2023-02-11T07:19:57.840Z,102238.75
2023-02-11T07:23:00.801Z,102232.88
2023-02-11T07:26:12.029Z,102217.69
2023-02-11T07:29:14.837Z,102249.16
2023-02-11T07:32:17.291Z,102249.00
2023-02-11T07:35:20.026Z,102244.88
2023-02-11T07:38:22.425Z,102238.72
2023-02-11T07:41:26.062Z,102209.06
2023-02-11T07:44:28.380Z,102204.56
2023-02-11T07:47:31.011Z,102209.47
2023-02-11T07:50:33.424Z,102219.72
2023-02-11T07:53:36.220Z,102216.00
2023-02-11T07:56:38.596Z,102204.97
2023-02-11T07:59:41.238Z,102221.50
2023-02-11T08:02:43.540Z,102217.47
2023-02-11T08:05:46.172Z,102202.31
2023-02-11T08:08:49.221Z,102207.38
2023-02-11T08:11:51.853Z,102204.06
2023-02-11T08:14:54.210Z,102181.97
2023-02-11T08:17:57.157Z,102190.72
2023-02-11T08:21:08.115Z,102222.00
2023-02-11T08:24:10.988Z,102220.84
2023-02-11T08:27:13.284Z,102192.47
2023-02-11T08:30:15.902Z,102211.12
2023-02-11T08:33:18.258Z,102218.06
2023-02-11T08:36:23.774Z,102214.06
2023-02-11T08:39:26.193Z,102220.00
2023-02-11T08:42:28.798Z,102220.25
2023-02-11T08:45:31.291Z,102218.56
2023-02-11T08:48:34.058Z,102190.28
2023-02-11T08:51:36.437Z,102209.19
2023-02-11T08:54:39.246Z,102184.66
2023-02-11T08:57:41.582Z,102212.25
2023-02-11T09:00:45.350Z,102191.16
2023-02-11T09:03:48.164Z,102181.53
2023-02-11T09:06:50.858Z,102200.25
2023-02-11T09:09:53.326Z,102196.06
2023-02-11T09:12:56.041Z,102199.25
2023-02-11T09:15:59.786Z,102187.94
2023-02-11T09:19:04.832Z,102188.22
2023-02-11T09:22:07.354Z,102188.91
2023-02-11T09:25:11.366Z,102176.88
2023-02-11T09:28:13.738Z,102166.13
2023-02-11T09:31:19.522Z,102173.53
2023-02-11T09:34:22.007Z,102143.28
2023-02-11T09:37:24.645Z,102170.56
2023-02-11T09:40:27.090Z,102169.06
2023-02-11T09:43:44.771Z,102141.97
2023-02-11T09:46:54.794Z,102167.34
2023-02-11T09:50:02.512Z,102159.91
2023-02-11T09:53:35.390Z,102161.31
2023-02-11T09:56:38.052Z,102150.78
2023-02-11T09:59:40.574Z,102147.81
2023-02-11T10:03:14.257Z,102150.97
2023-02-11T10:06:40.827Z,102151.41
2023-02-11T10:09:55.327Z,102152.25
2023-02-11T10:13:03.621Z,102142.00
2023-02-11T10:16:18.039Z,102138.34
2023-02-11T10:19:33.966Z,102126.00
2023-02-11T10:22:52.951Z,102113.78
2023-02-11T10:25:57.488Z,102118.97
2023-02-11T10:29:04.877Z,102099.09
2023-02-11T10:32:29.651Z,102108.94
2023-02-11T10:35:32.747Z,102096.44
2023-02-11T10:38:36.976Z,102098.72
2023-02-11T10:41:44.477Z,102096.16
2023-02-11T10:45:07.428Z,102083.81
2023-02-11T10:48:40.936Z,102099.56
2023-02-11T10:51:45.858Z,102088.38
2023-02-11T10:55:16.180Z,102066.44
2023-02-11T10:58:45.418Z,102078.59
2023-02-11T11:01:52.628Z,102058.44
2023-02-11T11:04:59.824Z,102072.44
2023-02-11T11:08:08.748Z,102054.50
2023-02-11T11:11:15.532Z,102065.88
2023-02-11T11:14:22.205Z,102058.81
2023-02-11T11:17:29.073Z,102038.56
2023-02-11T11:20:36.282Z,102024.50
2023-02-11T11:23:40.047Z,102030.88
2023-02-11T11:26:45.849Z,102060.34
2023-02-11T11:29:52.057Z,102041.69
2023-02-11T11:32:54.920Z,102042.16
2023-02-11T11:35:59.512Z,102036.81
2023-02-11T11:39:15.412Z,102032.00
2023-02-11T11:42:35.672Z,102019.53
2023-02-11T11:45:38.080Z,102003.97
2023-02-11T11:48:47.079Z,101994.34
2023-02-11T11:52:15.893Z,101992.75
2023-02-11T11:55:22.764Z,101989.19
2023-02-11T11:58:25.129Z,101970.41
2023-02-11T12:01:43.153Z,101996.72
2023-02-11T12:05:05.760Z,101986.50
2023-02-11T12:08:28.354Z,101981.75
2023-02-11T12:11:37.231Z,101966.44
2023-02-11T12:14:42.522Z,101954.59
2023-02-11T12:18:38.653Z,101947.69
2023-02-11T12:21:59.635Z,101943.03
2023-02-11T12:25:15.123Z,101924.19
2023-02-11T12:28:37.023Z,101909.03
2023-02-11T12:32:08.025Z,101924.69
2023-02-11T12:35:21.928Z,101914.47
2023-02-11T12:38:24.472Z,101914.25
2023-02-11T12:42:20.033Z,101913.75
2023-02-11T12:45:35.954Z,101907.13
2023-02-11T12:49:04.367Z,101880.28
2023-02-11T12:52:16.183Z,101877.44
2023-02-11T12:55:27.012Z,101887.78
2023-02-11T12:58:44.654Z,101886.19
2023-02-11T13:01:51.938Z,101869.16
2023-02-11T13:04:59.039Z,101882.25
2023-02-11T13:08:17.001Z,101875.25
2023-02-11T13:11:41.083Z,101886.69
2023-02-11T13:14:43.572Z,101874.66
2023-02-11T13:18:02.249Z,101851.06
2023-02-11T13:21:19.509Z,101859.38
2023-02-11T13:24:34.772Z,101859.53
2023-02-11T13:28:07.277Z,101856.59
2023-02-11T13:31:12.671Z,101841.00
2023-02-11T13:34:50.180Z,101834.38
2023-02-11T13:37:52.919Z,101839.66
2023-02-11T13:41:13.721Z,101838.81
2023-02-11T13:44:22.336Z,101839.31
2023-02-11T13:47:33.921Z,101829.94
2023-02-11T13:50:47.831Z,101822.97
2023-02-11T13:53:58.263Z,101837.53
2023-02-11T13:57:26.988Z,101832.56
2023-02-11T14:00:35.315Z,101836.78
2023-02-11T14:03:58.120Z,101847.50
2023-02-11T14:07:51.338Z,101843.87
2023-02-11T14:11:12.819Z,101846.78
2023-02-11T14:14:25.511Z,101823.66
2023-02-11T14:17:33.869Z,101829.06
2023-02-11T14:20:42.184Z,101819.28
2023-02-11T14:23:46.064Z,101817.25
2023-02-11T14:26:59.256Z,101835.62
2023-02-11T14:30:32.161Z,101848.97
2023-02-11T14:33:50.911Z,101852.97
2023-02-11T14:37:02.655Z,101858.16
2023-02-11T14:40:23.311Z,101860.09
2023-02-11T14:43:31.742Z,101860.47
2023-02-11T14:46:34.845Z,101840.50
2023-02-11T14:49:40.761Z,101838.59
2023-02-11T14:52:44.299Z,101851.91
2023-02-11T14:55:54.970Z,101848.88
2023-02-11T14:58:58.370Z,101839.75
2023-02-11T15:02:01.146Z,101813.91
2023-02-11T15:05:26.202Z,101830.50
2023-02-11T15:08:30.997Z,101818.03
2023-02-11T15:11:40.270Z,101809.63
2023-02-11T15:14:48.326Z,101811.53
2023-02-11T15:17:51.125Z,101783.91
2023-02-11T15:20:54.461Z,101810.59
2023-02-11T15:24:06.763Z,101800.00
2023-02-11T15:27:11.803Z,101800.00
2023-02-11T15:30:25.008Z,101810.22
2023-02-11T15:33:30.235Z,101797.00
2023-02-11T15:36:36.262Z,101796.91
2023-02-11T15:39:41.256Z,101790.53
2023-02-11T15:42:58.751Z,101786.31
2023-02-11T15:46:02.111Z,101767.09
2023-02-11T15:49:04.897Z,101780.56
2023-02-11T15:52:08.382Z,101779.09
2023-02-11T15:55:14.632Z,101755.28
2023-02-11T15:58:17.346Z,101780.06
2023-02-11T16:01:19.755Z,101767.44
2023-02-11T16:04:25.566Z,101765.50
2023-02-11T16:07:50.505Z,101755.91
2023-02-11T16:10:59.767Z,101763.81
2023-02-11T16:14:05.157Z,101752.16
2023-02-11T16:17:13.442Z,101760.72
2023-02-11T16:20:19.746Z,101761.75
2023-02-11T16:23:33.159Z,101751.81
2023-02-11T16:26:43.173Z,101743.75
2023-02-11T16:29:49.825Z,101749.63
2023-02-11T16:32:54.161Z,101742.53
2023-02-11T16:35:57.846Z,101740.97
2023-02-11T16:39:00.181Z,101757.66
2023-02-11T16:42:06.442Z,101754.78
2023-02-11T16:45:10.185Z,101755.63
2023-02-11T16:48:18.089Z,101759.69
2023-02-11T16:51:20.545Z,101752.72
2023-02-11T16:54:24.219Z,101741.31
2023-02-11T16:57:29.880Z,101733.38
2023-02-11T17:00:33.164Z,101732.16
2023-02-11T17:03:40.590Z,101756.03
2023-02-11T17:06:43.289Z,101739.47
2023-02-11T17:09:45.681Z,101735.63
2023-02-11T17:12:49.064Z,101735.50
2023-02-11T17:15:51.770Z,101750.88
2023-02-11T17:18:54.889Z,101749.41
2023-02-11T17:21:57.321Z,101752.41
2023-02-11T17:25:00.035Z,101758.78
2023-02-11T17:28:02.532Z,101752.28
2023-02-11T17:31:09.506Z,101741.44
2023-02-11T17:34:12.362Z,101776.19
2023-02-11T17:37:15.268Z,101771.88
2023-02-11T17:40:17.729Z,101763.59
2023-02-11T17:43:20.329Z,101769.50
2023-02-11T17:46:22.690Z,101765.28
2023-02-11T17:49:25.408Z,101765.28
2023-02-11T17:52:28.274Z,101743.62
2023-02-11T17:55:34.079Z,101766.72
2023-02-11T17:58:36.537Z,101755.31
2023-02-11T18:01:41.245Z,101746.53
2023-02-11T18:04:43.905Z,101735.88
2023-02-11T18:07:48.033Z,101730.84
2023-02-11T18:10:50.738Z,101713.41
2023-02-11T18:13:54.615Z,101720.41
2023-02-11T18:16:57.477Z,101718.22
2023-02-11T18:19:59.866Z,101729.13
2023-02-11T18:23:03.141Z,101717.25
2023-02-11T18:26:10.000Z,101715.59
2023-02-11T18:29:12.660Z,101722.06
2023-02-11T18:32:15.238Z,101716.62
2023-02-11T18:35:17.900Z,101722.16
2023-02-11T18:38:20.713Z,101722.38
2023-02-11T18:41:23.531Z,101717.00
2023-02-11T18:44:27.449Z,101696.72
2023-02-11T18:47:31.614Z,101714.50
2023-02-11T18:50:34.045Z,101715.13
2023-02-11T18:53:36.927Z,101727.47
2023-02-11T18:56:40.481Z,101725.31
2023-02-11T18:59:43.804Z,101720.72
2023-02-11T19:02:46.154Z,101710.06
2023-02-11T19:05:49.834Z,101726.16
2023-02-11T19:08:53.910Z,101706.81
2023-02-11T19:11:57.962Z,101713.78
2023-02-11T19:15:00.852Z,101729.97
2023-02-11T19:18:03.624Z,101721.22
2023-02-11T19:21:11.348Z,101726.53
2023-02-11T19:24:17.249Z,101702.53
2023-02-11T19:27:19.538Z,101719.59
2023-02-11T19:30:22.297Z,101714.91
2023-02-11T19:33:24.684Z,101722.59
2023-02-11T19:36:27.928Z,101734.38
2023-02-11T19:39:31.378Z,101734.94
2023-02-11T19:42:34.181Z,101708.78
2023-02-11T19:45:37.845Z,101738.56
2023-02-11T19:48:40.538Z,101732.19
2023-02-11T19:51:43.464Z,101734.38
2023-02-11T19:54:46.402Z,101719.09
2023-02-11T19:57:51.675Z,101735.28
2023-02-11T20:00:54.429Z,101740.47
2023-02-11T20:03:57.773Z,101735.28
2023-02-11T20:07:00.372Z,101713.56
2023-02-11T20:10:03.381Z,101700.47
2023-02-11T20:13:05.800Z,101718.97
2023-02-11T20:16:12.414Z,101699.50
2023-02-11T20:19:18.368Z,101715.47
2023-02-11T20:22:21.265Z,101706.97
2023-02-11T20:25:23.730Z,101697.34
2023-02-11T20:28:26.747Z,101722.91
2023-02-11T20:31:32.631Z,101724.63
2023-02-11T20:34:35.461Z,101698.66
2023-02-11T20:37:38.796Z,101714.16
2023-02-11T20:40:44.166Z,101705.88
2023-02-11T20:43:49.149Z,101706.12
2023-02-11T20:46:53.855Z,101675.72
2023-02-11T20:49:56.318Z,101673.44
2023-02-11T20:52:59.005Z,101706.84
2023-02-11T20:56:07.000Z,101681.37
2023-02-11T20:59:10.053Z,101706.22
2023-02-11T21:02:13.409Z,101703.97
2023-02-11T21:05:16.248Z,101713.91
2023-02-11T21:08:18.658Z,101705.00
2023-02-11T21:11:21.317Z,101691.00
2023-02-11T21:14:25.634Z,101682.81
2023-02-11T21:17:28.256Z,101691.78
2023-02-11T21:20:30.569Z,101704.75
2023-02-11T21:23:33.218Z,101684.56
2023-02-11T21:26:36.072Z,101705.22
2023-02-11T21:29:52.676Z,101702.25
2023-02-11T21:32:58.476Z,101707.38
2023-02-11T21:36:03.594Z,101680.34
2023-02-11T21:39:06.034Z,101685.94
2023-02-11T21:42:08.922Z,101690.06
2023-02-11T21:45:11.301Z,101676.69
2023-02-11T21:48:14.859Z,101700.50
2023-02-11T21:51:20.294Z,101703.28
2023-02-11T21:54:25.911Z,101679.44
2023-02-11T21:57:28.302Z,101683.53
2023-02-11T22:00:31.812Z,101650.25
2023-02-11T22:03:34.482Z,101662.62
2023-02-11T22:06:36.888Z,101673.41
2023-02-11T22:09:40.785Z,101654.28
2023-02-11T22:12:43.414Z,101691.28
2023-02-11T22:15:46.117Z,101699.56
2023-02-11T22:18:48.562Z,101672.88
2023-02-11T22:21:51.356Z,101691.09
2023-02-11T22:24:54.097Z,101698.91
2023-02-11T22:27:57.076Z,101709.75
2023-02-11T22:30:59.642Z,101680.09
2023-02-11T22:34:04.545Z,101684.75
2023-02-11T22:37:07.640Z,101711.16
2023-02-11T22:40:10.846Z,101696.94
2023-02-11T22:43:13.348Z,101687.00
2023-02-11T22:46:18.075Z,101716.75
2023-02-11T22:49:22.270Z,101704.75
2023-02-11T22:52:25.129Z,101691.72
2023-02-11T22:55:27.628Z,101693.09
2023-02-11T22:58:32.795Z,101711.78
2023-02-11T23:01:36.759Z,101708.56
2023-02-11T23:04:39.422Z,101713.00
2023-02-11T23:07:41.869Z,101713.00
2023-02-11T23:10:44.599Z,101704.91
2023-02-11T23:13:48.930Z,101716.97
2023-02-11T23:16:51.664Z,101715.78
2023-02-11T23:19:54.278Z,101736.06
2023-02-11T23:22:56.988Z,101744.53
2023-02-11T23:25:59.312Z,101719.91
2023-02-11T23:29:02.015Z,101722.56
2023-02-11T23:32:05.003Z,101728.31
2023-02-11T23:35:07.853Z,101716.13
2023-02-11T23:38:10.320Z,101732.13
2023-02-11T23:41:13.741Z,101732.75
2023-02-11T23:44:16.163Z,101724.50
2023-02-11T23:47:18.808Z,101693.94
2023-02-11T23:50:21.323Z,101712.28
2023-02-11T23:53:24.144Z,101720.56
2023-02-11T23:56:27.749Z,101711.94
2023-02-11T23:59:30.598Z,101717.66
